createdAt,value
2022-10-08T00:01:01.973Z,53.99
2022-10-08T00:02:03.797Z,53.57
2022-10-08T00:03:05.619Z,53.95
2022-10-08T00:04:07.661Z,53.52
2022-10-08T00:05:09.897Z,53.47
2022-10-08T00:06:14.850Z,53.68
2022-10-08T00:07:16.748Z,53.54
2022-10-08T00:08:18.455Z,53.86
2022-10-08T00:09:20.203Z,54.16
2022-10-08T00:10:21.909Z,54.01
2022-10-08T00:11:28.014Z,53.51
2022-10-08T00:12:29.733Z,53.99
2022-10-08T00:13:42.376Z,53.83
2022-10-08T00:14:44.140Z,53.85
2022-10-08T00:15:46.096Z,53.82
2022-10-08T00:16:47.877Z,53.96
2022-10-08T00:17:49.590Z,53.78
2022-10-08T00:18:55.580Z,53.69
2022-10-08T00:19:57.455Z,54.04
2022-10-08T00:21:14.331Z,53.63
2022-10-08T00:22:16.124Z,54.28
2022-10-08T00:23:17.896Z,54.10
2022-10-08T00:24:21.145Z,53.85
2022-10-08T00:25:22.980Z,54.19
2022-10-08T00:26:27.997Z,53.93
2022-10-08T00:27:29.822Z,54.39
2022-10-08T00:28:31.665Z,53.86
2022-10-08T00:29:33.513Z,53.70
2022-10-08T00:30:40.956Z,54.46
2022-10-08T00:31:45.850Z,53.86
2022-10-08T00:32:48.080Z,54.20
2022-10-08T00:33:56.396Z,54.03
2022-10-08T00:34:58.376Z,53.95
2022-10-08T00:36:09.560Z,53.83
2022-10-08T00:37:11.391Z,54.09
2022-10-08T00:38:13.139Z,53.92
2022-10-08T00:39:19.396Z,53.97
2022-10-08T00:40:21.116Z,53.85
2022-10-08T00:41:25.623Z,54.14
2022-10-08T00:42:27.421Z,53.92
2022-10-08T00:43:54.068Z,54.01
2022-10-08T00:45:00.477Z,53.84
2022-10-08T00:46:03.739Z,54.50
2022-10-08T00:47:07.577Z,54.62
2022-10-08T00:48:20.837Z,54.33
2022-10-08T00:49:23.084Z,54.02
2022-10-08T00:50:35.310Z,54.34
2022-10-08T00:51:41.320Z,54.02
2022-10-08T00:52:50.289Z,53.87
2022-10-08T00:53:52.968Z,54.51
2022-10-08T00:54:56.139Z,54.07
2022-10-08T00:55:57.909Z,54.02
2022-10-08T00:57:00.869Z,53.90
2022-10-08T00:58:16.616Z,53.81
2022-10-08T00:59:19.746Z,54.21
2022-10-08T01:00:25.438Z,54.42
2022-10-08T01:01:27.343Z,54.21
2022-10-08T01:02:29.200Z,54.02
2022-10-08T01:03:31.635Z,54.06
2022-10-08T01:04:33.653Z,54.39
2022-10-08T01:05:58.590Z,54.29
2022-10-08T01:07:26.741Z,53.76
2022-10-08T01:08:53.934Z,54.04
2022-10-08T01:10:15.983Z,53.87
2022-10-08T01:11:49.256Z,53.99
2022-10-08T01:13:17.024Z,53.86
2022-10-08T01:14:52.334Z,54.00
2022-10-08T01:16:16.084Z,53.95
2022-10-08T01:17:52.973Z,53.86
2022-10-08T01:19:06.609Z,53.77
2022-10-08T01:20:15.199Z,54.38
2022-10-08T01:21:47.482Z,54.47
2022-10-08T01:23:25.788Z,53.79
2022-10-08T01:25:09.268Z,53.90
2022-10-08T01:26:35.189Z,54.10
2022-10-08T01:27:46.594Z,54.11
2022-10-08T01:29:17.470Z,53.92
2022-10-08T01:30:19.960Z,54.00
2022-10-08T01:31:30.960Z,54.13
2022-10-08T01:32:43.233Z,54.07
2022-10-08T01:34:06.441Z,54.11
2022-10-08T01:35:20.154Z,54.28
2022-10-08T01:36:25.690Z,54.04
2022-10-08T01:37:32.933Z,54.20
2022-10-08T01:38:42.587Z,54.57
2022-10-08T01:39:49.204Z,54.45
2022-10-08T01:40:58.795Z,54.31
2022-10-08T01:42:05.476Z,54.76
2022-10-08T01:43:12.102Z,54.18
2022-10-08T01:44:26.156Z,54.11
2022-10-08T01:45:36.868Z,54.63
2022-10-08T01:46:44.441Z,54.56
2022-10-08T01:47:49.523Z,53.97
2022-10-08T01:48:59.246Z,54.17
2022-10-08T01:50:28.107Z,54.46
2022-10-08T01:51:39.272Z,54.33
2022-10-08T01:52:49.462Z,54.01
2022-10-08T01:53:53.030Z,53.83
2022-10-08T01:55:01.864Z,54.47
2022-10-08T01:56:07.752Z,54.36
2022-10-08T01:57:11.799Z,54.06
2022-10-08T01:58:28.883Z,54.17
2022-10-08T01:59:38.867Z,54.07
2022-10-08T02:00:42.168Z,53.92
2022-10-08T02:02:03.293Z,54.18
2022-10-08T02:03:05.177Z,54.53
2022-10-08T02:04:26.093Z,54.36
2022-10-08T02:05:35.518Z,53.80
2022-10-08T02:06:44.734Z,54.04
2022-10-08T02:07:46.474Z,54.10
2022-10-08T02:08:49.860Z,54.15
2022-10-08T02:10:03.986Z,54.14
2022-10-08T02:11:05.933Z,54.29
2022-10-08T02:12:09.172Z,54.23
2022-10-08T02:13:11.994Z,54.06
2022-10-08T02:14:14.226Z,54.42
2022-10-08T02:16:02.106Z,54.35
2022-10-08T02:17:38.943Z,54.26
2022-10-08T02:18:52.007Z,54.32
2022-10-08T02:20:16.804Z,54.35
2022-10-08T02:21:26.957Z,54.05
2022-10-08T02:22:37.825Z,54.58
2022-10-08T02:23:52.813Z,54.02
2022-10-08T02:25:17.013Z,54.51
2022-10-08T02:26:29.824Z,54.55
2022-10-08T02:27:53.375Z,54.14
2022-10-08T02:29:36.647Z,54.30
2022-10-08T02:30:52.743Z,54.04
2022-10-08T02:32:04.531Z,54.44
2022-10-08T02:33:15.836Z,54.43
2022-10-08T02:34:43.474Z,54.33
2022-10-08T02:35:53.785Z,54.14
2022-10-08T02:37:23.139Z,54.49
2022-10-08T02:38:38.095Z,54.28
2022-10-08T02:39:47.262Z,54.05
2022-10-08T02:40:58.073Z,54.59
2022-10-08T02:42:11.030Z,54.04
2022-10-08T02:43:22.492Z,54.24
2022-10-08T02:44:35.171Z,54.58
2022-10-08T02:45:47.866Z,54.14
2022-10-08T02:46:55.811Z,54.16
2022-10-08T02:48:08.256Z,54.10
2022-10-08T02:49:17.505Z,54.78
2022-10-08T02:50:25.319Z,54.49
2022-10-08T02:51:30.810Z,54.84
2022-10-08T02:52:39.058Z,54.43
2022-10-08T02:53:41.931Z,54.54
2022-10-08T02:54:48.063Z,54.62
2022-10-08T02:55:58.700Z,54.54
2022-10-08T02:57:21.952Z,54.51
2022-10-08T02:58:24.198Z,54.60
2022-10-08T02:59:26.540Z,54.46
2022-10-08T03:00:38.438Z,54.55
2022-10-08T03:01:54.154Z,54.26
2022-10-08T03:03:07.367Z,54.15
2022-10-08T03:04:22.125Z,54.52
2022-10-08T03:05:25.514Z,54.10
2022-10-08T03:06:29.980Z,54.46
2022-10-08T03:07:33.849Z,54.59
2022-10-08T03:08:46.249Z,54.67
2022-10-08T03:09:51.689Z,54.52
2022-10-08T03:10:54.070Z,54.45
2022-10-08T03:11:56.252Z,54.55
2022-10-08T03:13:05.044Z,54.68
2022-10-08T03:14:12.240Z,54.63
2022-10-08T03:15:14.919Z,54.58
2022-10-08T03:16:22.675Z,54.71
2022-10-08T03:17:37.948Z,54.34
2022-10-08T03:18:41.318Z,54.56
2022-10-08T03:19:43.012Z,54.67
2022-10-08T03:20:50.645Z,54.51
2022-10-08T03:21:56.111Z,54.49
2022-10-08T03:23:01.985Z,54.99
2022-10-08T03:24:03.889Z,54.31
2022-10-08T03:25:06.261Z,54.75
2022-10-08T03:26:08.074Z,54.58
2022-10-08T03:27:09.764Z,55.04
2022-10-08T03:28:11.868Z,54.68
2022-10-08T03:29:13.652Z,54.74
2022-10-08T03:30:15.397Z,54.38
2022-10-08T03:31:17.156Z,54.83
2022-10-08T03:32:18.963Z,54.57
2022-10-08T03:33:20.724Z,54.78
2022-10-08T03:34:25.339Z,55.22
2022-10-08T03:35:27.188Z,54.60
2022-10-08T03:36:29.958Z,54.98
2022-10-08T03:37:31.712Z,54.89
2022-10-08T03:38:34.838Z,54.93
2022-10-08T03:39:36.596Z,54.95
2022-10-08T03:40:38.351Z,55.15
2022-10-08T03:41:40.399Z,55.04
2022-10-08T03:42:42.144Z,54.77
2022-10-08T03:43:45.057Z,55.22
2022-10-08T03:44:46.801Z,54.64
2022-10-08T03:45:53.777Z,54.83
2022-10-08T03:46:55.523Z,54.48
2022-10-08T03:47:57.279Z,54.73
2022-10-08T03:48:58.964Z,54.76
2022-10-08T03:50:00.704Z,54.63
2022-10-08T03:51:11.079Z,55.09
2022-10-08T03:52:12.836Z,54.83
2022-10-08T03:53:14.559Z,54.82
2022-10-08T03:54:16.255Z,54.88
2022-10-08T03:55:17.992Z,55.30
2022-10-08T03:56:25.527Z,54.84
2022-10-08T03:57:27.509Z,54.96
2022-10-08T03:58:29.908Z,55.29
2022-10-08T03:59:31.602Z,55.01
2022-10-08T04:00:33.304Z,54.83
2022-10-08T04:01:35.077Z,54.87
2022-10-08T04:02:36.877Z,55.08
2022-10-08T04:03:38.667Z,55.46
2022-10-08T04:04:40.440Z,55.05
2022-10-08T04:05:49.247Z,55.14
2022-10-08T04:06:51.098Z,55.18
2022-10-08T04:07:52.803Z,55.02
2022-10-08T04:09:00.679Z,55.05
2022-10-08T04:10:02.436Z,55.28
2022-10-08T04:11:06.925Z,55.03
2022-10-08T04:12:08.661Z,55.61
2022-10-08T04:13:10.464Z,54.98
2022-10-08T04:14:12.197Z,55.26
2022-10-08T04:15:13.949Z,55.21
2022-10-08T04:16:18.150Z,55.21
2022-10-08T04:17:19.929Z,55.20
2022-10-08T04:18:21.634Z,55.33
2022-10-08T04:19:23.384Z,55.53
2022-10-08T04:20:25.095Z,55.61
2022-10-08T04:21:26.819Z,55.39
2022-10-08T04:22:28.527Z,55.26
2022-10-08T04:23:33.896Z,55.67
2022-10-08T04:24:35.622Z,55.25
2022-10-08T04:25:37.485Z,54.99
2022-10-08T04:26:39.242Z,54.85
2022-10-08T04:27:41.072Z,54.79
2022-10-08T04:28:44.503Z,55.60
2022-10-08T04:29:46.313Z,55.38
2022-10-08T04:31:03.023Z,54.99
2022-10-08T04:32:04.857Z,55.30
2022-10-08T04:33:06.563Z,55.48
2022-10-08T04:34:11.488Z,54.84
2022-10-08T04:35:13.313Z,55.06
2022-10-08T04:36:18.613Z,55.07
2022-10-08T04:37:22.402Z,55.15
2022-10-08T04:38:24.544Z,55.57
2022-10-08T04:39:26.319Z,55.55
2022-10-08T04:40:28.003Z,55.07
2022-10-08T04:41:29.722Z,55.56
2022-10-08T04:42:31.446Z,55.73
2022-10-08T04:43:35.391Z,55.13
2022-10-08T04:44:37.109Z,55.49
2022-10-08T04:45:46.814Z,55.46
2022-10-08T04:46:48.602Z,55.42
2022-10-08T04:47:50.312Z,55.16
2022-10-08T04:48:55.616Z,55.33
2022-10-08T04:49:57.343Z,55.53
2022-10-08T04:51:06.842Z,55.19
2022-10-08T04:52:12.061Z,55.42
2022-10-08T04:53:13.782Z,55.43
2022-10-08T04:54:15.515Z,55.19
2022-10-08T04:55:17.248Z,55.10
2022-10-08T04:56:23.171Z,55.59
2022-10-08T04:57:24.855Z,55.10
2022-10-08T04:58:26.658Z,55.64
2022-10-08T04:59:28.406Z,55.44
2022-10-08T05:00:30.135Z,55.15
2022-10-08T05:01:32.152Z,55.35
2022-10-08T05:02:34.025Z,55.46
2022-10-08T05:03:42.097Z,55.21
2022-10-08T05:04:43.810Z,55.45
2022-10-08T05:05:46.482Z,55.31
2022-10-08T05:06:48.240Z,55.26
2022-10-08T05:07:50.727Z,55.70
2022-10-08T05:08:52.863Z,55.25
2022-10-08T05:09:54.577Z,55.02
2022-10-08T05:10:56.274Z,55.28
2022-10-08T05:11:58.090Z,55.05
2022-10-08T05:12:59.836Z,55.51
2022-10-08T05:14:02.119Z,55.25
2022-10-08T05:15:04.203Z,55.09
2022-10-08T05:16:13.208Z,55.54
2022-10-08T05:17:15.100Z,55.12
2022-10-08T05:18:16.858Z,54.97
2022-10-08T05:19:18.664Z,55.23
2022-10-08T05:20:20.544Z,55.44
2022-10-08T05:21:26.656Z,55.10
2022-10-08T05:22:28.674Z,54.92
2022-10-08T05:23:30.479Z,55.03
2022-10-08T05:24:32.177Z,55.47
2022-10-08T05:25:35.505Z,55.45
2022-10-08T05:28:04.052Z,55.47
2022-10-08T05:29:06.409Z,55.38
2022-10-08T05:30:08.919Z,55.56
2022-10-08T05:31:11.052Z,55.21
2022-10-08T05:32:12.791Z,55.23
2022-10-08T05:33:14.494Z,55.18
2022-10-08T05:34:16.519Z,55.00
2022-10-08T05:35:18.324Z,55.35
2022-10-08T05:36:24.270Z,55.47
2022-10-08T05:37:26.049Z,55.38
2022-10-08T05:38:34.623Z,55.03
2022-10-08T05:39:36.777Z,55.34
2022-10-08T05:40:38.463Z,55.77
2022-10-08T05:41:40.968Z,55.17
2022-10-08T05:42:42.704Z,55.26
2022-10-08T05:43:45.331Z,55.30
2022-10-08T05:44:47.025Z,55.17
2022-10-08T05:45:52.160Z,55.22
2022-10-08T05:46:53.914Z,55.31
2022-10-08T05:47:55.797Z,55.22
2022-10-08T05:49:01.121Z,55.77
2022-10-08T05:50:03.017Z,55.53
2022-10-08T05:51:14.641Z,55.28
2022-10-08T05:52:16.433Z,55.83
2022-10-08T05:53:18.342Z,55.73
2022-10-08T05:54:20.547Z,55.89
2022-10-08T05:55:22.364Z,55.65
2022-10-08T05:56:26.293Z,55.85
2022-10-08T05:57:28.277Z,55.72
2022-10-08T05:58:30.752Z,55.53
2022-10-08T05:59:32.493Z,55.76
2022-10-08T06:00:34.243Z,55.41
2022-10-08T06:01:35.957Z,55.45
2022-10-08T06:02:37.705Z,55.92
2022-10-08T06:03:39.582Z,55.88
2022-10-08T06:04:41.318Z,56.00
2022-10-08T06:05:43.066Z,55.40
2022-10-08T06:06:45.322Z,55.43
2022-10-08T06:07:47.030Z,55.40
2022-10-08T06:08:53.737Z,56.03
2022-10-08T06:09:55.509Z,55.39
2022-10-08T06:10:57.809Z,55.33
2022-10-08T06:11:59.926Z,56.03
2022-10-08T06:13:01.693Z,55.54
2022-10-08T06:14:06.277Z,55.58
2022-10-08T06:15:08.351Z,55.45
2022-10-08T06:16:12.035Z,56.02
2022-10-08T06:17:13.856Z,56.04
2022-10-08T06:18:15.563Z,56.05
2022-10-08T06:19:17.592Z,55.78
2022-10-08T06:20:19.332Z,55.74
2022-10-08T06:21:26.845Z,55.81
2022-10-08T06:22:28.537Z,55.86
2022-10-08T06:23:30.408Z,55.67
2022-10-08T06:24:32.233Z,55.70
2022-10-08T06:25:37.440Z,56.25
2022-10-08T06:26:41.721Z,56.10
2022-10-08T06:27:43.409Z,55.65
2022-10-08T06:28:45.984Z,56.22
2022-10-08T06:29:47.773Z,55.42
2022-10-08T06:30:49.485Z,55.80
2022-10-08T06:31:52.472Z,55.60
2022-10-08T06:32:54.255Z,55.80
2022-10-08T06:33:58.064Z,55.79
2022-10-08T06:35:00.151Z,55.63
2022-10-08T06:36:13.899Z,56.11
2022-10-08T06:37:15.684Z,55.63
2022-10-08T06:38:17.468Z,55.81
2022-10-08T06:39:19.758Z,55.89
2022-10-08T06:40:22.042Z,55.79
2022-10-08T06:41:25.414Z,56.21
2022-10-08T06:42:27.130Z,56.28
2022-10-08T06:43:28.856Z,55.82
2022-10-08T06:44:30.577Z,56.24
2022-10-08T06:45:32.280Z,55.83
2022-10-08T06:46:34.538Z,56.06
2022-10-08T06:47:36.510Z,55.74
2022-10-08T06:48:38.595Z,56.07
2022-10-08T06:49:40.900Z,56.08
2022-10-08T06:50:42.717Z,55.48
2022-10-08T06:51:44.420Z,55.92
2022-10-08T06:52:46.439Z,55.89
2022-10-08T06:54:00.315Z,55.42
2022-10-08T06:55:05.369Z,55.69
2022-10-08T06:56:12.518Z,56.11
2022-10-08T06:57:14.219Z,55.30
2022-10-08T06:58:15.942Z,55.39
2022-10-08T06:59:17.631Z,55.98
2022-10-08T07:00:20.096Z,55.28
2022-10-08T07:01:32.623Z,55.45
2022-10-08T07:02:35.312Z,55.49
2022-10-08T07:03:37.895Z,55.69
2022-10-08T07:04:39.660Z,55.45
2022-10-08T07:05:41.550Z,55.68
2022-10-08T07:06:43.256Z,55.23
2022-10-08T07:07:45.373Z,54.85
2022-10-08T07:08:50.959Z,55.21
2022-10-08T07:09:52.684Z,55.28
2022-10-08T07:10:54.775Z,54.95
2022-10-08T07:11:56.573Z,54.91
2022-10-08T07:12:58.399Z,54.81
2022-10-08T07:14:00.546Z,54.79
2022-10-08T07:15:02.450Z,55.21
2022-10-08T07:16:14.648Z,54.84
2022-10-08T07:17:18.625Z,54.87
2022-10-08T07:18:20.337Z,55.12
2022-10-08T07:19:23.110Z,54.99
2022-10-08T07:20:24.834Z,54.62
2022-10-08T07:21:28.797Z,54.63
2022-10-08T07:22:30.479Z,54.94
2022-10-08T07:23:32.577Z,54.87
2022-10-08T07:24:34.307Z,54.46
2022-10-08T07:25:36.002Z,54.28
2022-10-08T07:26:37.890Z,54.37
2022-10-08T07:27:44.185Z,54.39
2022-10-08T07:29:01.105Z,54.36
2022-10-08T07:30:02.931Z,54.08
2022-10-08T07:31:13.433Z,54.37
2022-10-08T07:32:15.170Z,53.90
2022-10-08T07:33:16.985Z,54.40
2022-10-08T07:34:18.838Z,54.18
2022-10-08T07:35:20.601Z,53.78
2022-10-08T07:36:25.002Z,54.20
2022-10-08T07:37:26.730Z,53.65
2022-10-08T07:38:28.426Z,53.79
2022-10-08T07:39:30.260Z,53.55
2022-10-08T07:40:31.996Z,53.51
2022-10-08T07:41:34.652Z,52.93
2022-10-08T07:42:36.358Z,52.74
2022-10-08T07:43:42.899Z,52.93
2022-10-08T07:44:44.618Z,52.53
2022-10-08T07:45:46.492Z,51.98
2022-10-08T07:46:51.750Z,51.68
2022-10-08T07:47:53.612Z,52.00
2022-10-08T07:48:58.857Z,51.89
2022-10-08T07:50:00.599Z,51.64
2022-10-08T07:51:17.627Z,51.24
2022-10-08T07:52:19.345Z,51.37
2022-10-08T07:53:21.219Z,50.85
2022-10-08T07:54:22.993Z,51.28
2022-10-08T07:55:24.700Z,50.86
2022-10-08T07:56:26.433Z,50.53
2022-10-08T07:57:28.296Z,50.75
2022-10-08T07:58:30.025Z,50.11
2022-10-08T07:59:32.676Z,50.25
2022-10-08T08:00:34.423Z,50.35
2022-10-08T08:01:36.279Z,49.94
2022-10-08T08:02:38.011Z,50.24
2022-10-08T08:03:40.139Z,49.58
2022-10-08T08:04:41.863Z,49.49
2022-10-08T08:05:43.585Z,48.97
2022-10-08T08:06:52.255Z,48.52
2022-10-08T08:07:53.951Z,48.63
2022-10-08T08:08:56.785Z,48.57
2022-10-08T08:09:58.741Z,48.22
2022-10-08T08:11:02.808Z,47.64
2022-10-08T08:12:04.538Z,47.50
2022-10-08T08:13:06.817Z,47.29
2022-10-08T08:14:08.720Z,47.53
2022-10-08T08:15:10.936Z,47.15
2022-10-08T08:16:19.031Z,47.07
2022-10-08T08:17:20.771Z,46.50
2022-10-08T08:18:22.456Z,46.33
2022-10-08T08:19:24.227Z,45.92
2022-10-08T08:20:25.921Z,46.20
2022-10-08T08:21:31.340Z,45.70
2022-10-08T08:22:33.024Z,45.90
2022-10-08T08:23:38.256Z,45.95
2022-10-08T08:24:39.996Z,45.90
2022-10-08T08:25:41.793Z,45.78
2022-10-08T08:26:43.897Z,45.65
2022-10-08T08:27:45.629Z,45.88
2022-10-08T08:28:59.788Z,45.58
2022-10-08T08:30:01.523Z,45.55
2022-10-08T08:31:26.324Z,45.28
2022-10-08T08:32:28.823Z,45.17
2022-10-08T08:33:30.535Z,45.01
2022-10-08T08:34:32.520Z,44.68
2022-10-08T08:35:34.252Z,44.66
2022-10-08T08:36:43.243Z,44.41
2022-10-08T08:37:45.627Z,44.52
2022-10-08T08:38:47.490Z,44.21
2022-10-08T08:39:49.212Z,44.10
2022-10-08T08:40:52.356Z,43.91
2022-10-08T08:42:18.265Z,43.58
2022-10-08T08:43:20.055Z,43.34
2022-10-08T08:44:29.608Z,43.41
2022-10-08T08:45:52.107Z,43.28
2022-10-08T08:47:01.449Z,42.93
2022-10-08T08:48:20.168Z,42.95
2022-10-08T08:49:47.447Z,42.95
2022-10-08T08:50:53.654Z,42.89
2022-10-08T08:51:58.038Z,42.73
2022-10-08T08:53:00.650Z,42.57
2022-10-08T08:54:02.525Z,42.73
2022-10-08T08:55:19.931Z,42.49
2022-10-08T08:56:24.419Z,42.31
2022-10-08T08:58:07.291Z,41.82
2022-10-08T08:59:34.893Z,41.80
2022-10-08T09:00:44.280Z,41.84
2022-10-08T09:01:48.578Z,41.84
2022-10-08T09:03:02.252Z,41.60
2022-10-08T09:04:44.901Z,41.74
2022-10-08T09:05:53.721Z,41.48
2022-10-08T09:06:59.546Z,41.30
2022-10-08T09:08:11.286Z,40.97
2022-10-08T09:09:31.810Z,40.79
2022-10-08T09:10:59.179Z,40.87
2022-10-08T09:12:19.847Z,40.52
2022-10-08T09:13:35.034Z,40.80
2022-10-08T09:14:44.770Z,40.64
2022-10-08T09:15:46.976Z,40.94
2022-10-08T09:16:49.104Z,40.54
2022-10-08T09:17:53.041Z,40.58
2022-10-08T09:18:55.669Z,40.71
2022-10-08T09:19:57.556Z,40.49
2022-10-08T09:20:59.356Z,40.35
2022-10-08T09:22:01.245Z,40.50
2022-10-08T09:23:10.321Z,40.34
2022-10-08T09:24:12.800Z,40.13
2022-10-08T09:25:25.340Z,40.30
2022-10-08T09:26:33.155Z,40.31
2022-10-08T09:27:57.115Z,40.42
2022-10-08T09:29:01.100Z,40.26
2022-10-08T09:30:03.035Z,40.21
2022-10-08T09:31:51.792Z,40.16
2022-10-08T09:32:57.429Z,40.37
2022-10-08T09:34:15.525Z,40.05
2022-10-08T09:35:17.353Z,40.06
2022-10-08T09:36:35.634Z,40.10
2022-10-08T09:37:37.360Z,39.89
2022-10-08T09:38:41.209Z,39.53
2022-10-08T09:40:11.753Z,39.32
2022-10-08T09:41:16.410Z,39.13
2022-10-08T09:42:18.337Z,38.71
2022-10-08T09:43:20.092Z,38.44
2022-10-08T09:44:23.336Z,37.99
2022-10-08T09:45:39.403Z,37.92
2022-10-08T09:46:41.302Z,38.01
2022-10-08T09:47:43.021Z,37.35
2022-10-08T09:48:45.782Z,37.67
2022-10-08T09:50:21.747Z,36.81
2022-10-08T09:51:24.073Z,36.91
2022-10-08T09:52:27.997Z,36.75
2022-10-08T09:53:48.441Z,36.39
2022-10-08T09:55:00.639Z,36.38
2022-10-08T09:56:05.548Z,36.15
2022-10-08T09:57:07.679Z,35.86
2022-10-08T09:58:19.263Z,35.94
2022-10-08T09:59:26.804Z,35.74
2022-10-08T10:00:35.375Z,35.45
2022-10-08T10:01:46.967Z,34.93
2022-10-08T10:02:55.613Z,34.55
2022-10-08T10:04:01.888Z,33.78
2022-10-08T10:05:17.884Z,33.40
2022-10-08T10:06:37.075Z,32.80
2022-10-08T10:07:45.319Z,32.50
2022-10-08T10:09:06.007Z,31.97
2022-10-08T10:10:48.597Z,31.32
2022-10-08T10:12:12.478Z,30.59
2022-10-08T10:13:42.279Z,30.20
2022-10-08T10:14:53.348Z,29.67
2022-10-08T10:16:22.519Z,29.31
2022-10-08T10:17:44.046Z,28.98
2022-10-08T10:19:07.366Z,28.93
2022-10-08T10:20:50.478Z,28.55
2022-10-08T10:22:06.116Z,28.10
2022-10-08T10:23:21.419Z,27.68
2022-10-08T10:24:50.184Z,27.48
2022-10-08T10:26:05.513Z,27.09
2022-10-08T10:27:24.451Z,27.15
2022-10-08T10:28:53.286Z,27.16
2022-10-08T10:30:22.200Z,26.92
2022-10-08T10:32:08.934Z,26.22
2022-10-08T10:33:37.358Z,26.24
2022-10-08T10:34:44.246Z,25.14
2022-10-08T10:36:13.715Z,24.89
2022-10-08T10:37:31.838Z,24.46
2022-10-08T10:39:02.337Z,24.64
2022-10-08T10:40:24.055Z,23.97
2022-10-08T10:41:57.596Z,24.06
2022-10-08T10:43:37.163Z,23.75
2022-10-08T10:45:01.956Z,23.42
2022-10-08T10:46:44.779Z,23.56
2022-10-08T10:47:49.037Z,22.66
2022-10-08T10:48:50.934Z,22.69
2022-10-08T10:49:53.279Z,21.96
2022-10-08T10:50:54.915Z,21.70
2022-10-08T10:52:33.701Z,21.69
2022-10-08T10:54:03.774Z,21.90
2022-10-08T10:55:29.920Z,21.69
2022-10-08T10:56:42.703Z,21.30
2022-10-08T10:58:02.000Z,21.30
2022-10-08T10:59:47.851Z,21.68
2022-10-08T11:01:06.510Z,21.33
2022-10-08T11:02:45.608Z,21.34
2022-10-08T11:04:23.205Z,21.13
2022-10-08T11:05:32.775Z,20.78
2022-10-08T11:07:02.576Z,21.29
2022-10-08T11:08:31.083Z,21.39
2022-10-08T11:09:53.230Z,21.29
2022-10-08T11:11:23.975Z,20.70
2022-10-08T11:12:55.246Z,21.07
2022-10-08T11:14:16.985Z,21.04
2022-10-08T11:15:46.369Z,20.78
2022-10-08T11:17:34.871Z,20.62
2022-10-08T11:18:54.222Z,20.97
2022-10-08T11:20:19.961Z,20.85
2022-10-08T11:21:52.950Z,21.03
2022-10-08T11:23:06.754Z,20.63
2022-10-08T11:24:26.458Z,20.78
2022-10-08T11:26:15.393Z,21.08
2022-10-08T11:27:57.766Z,21.38
2022-10-08T11:29:34.053Z,21.71
2022-10-08T11:30:48.672Z,21.43
2022-10-08T11:31:52.821Z,21.09
2022-10-08T11:32:58.103Z,20.72
2022-10-08T11:34:01.595Z,21.00
2022-10-08T11:35:19.457Z,20.79
2022-10-08T11:36:43.757Z,21.25
2022-10-08T11:38:23.253Z,21.23
2022-10-08T11:39:41.384Z,20.88
2022-10-08T11:41:06.305Z,21.73
2022-10-08T11:42:17.060Z,21.13
2022-10-08T11:43:39.576Z,21.38
2022-10-08T11:44:41.746Z,21.18
2022-10-08T11:45:46.075Z,21.54
2022-10-08T11:46:47.854Z,21.43
2022-10-08T11:47:59.761Z,21.07
2022-10-08T11:49:16.732Z,21.65
2022-10-08T11:50:37.295Z,21.46
2022-10-08T11:51:50.413Z,21.60
2022-10-08T11:53:14.728Z,21.78
2022-10-08T11:54:34.323Z,22.41
2022-10-08T11:55:37.936Z,21.79
2022-10-08T11:56:47.788Z,22.20
2022-10-08T11:58:09.750Z,21.85
2022-10-08T11:59:41.524Z,21.79
2022-10-08T12:00:46.921Z,22.25
2022-10-08T12:01:56.382Z,21.86
2022-10-08T12:03:00.136Z,22.08
2022-10-08T12:04:19.429Z,22.07
2022-10-08T12:05:24.203Z,22.28
2022-10-08T12:06:33.413Z,22.31
2022-10-08T12:07:39.224Z,22.69
2022-10-08T12:08:59.621Z,22.44
2022-10-08T12:10:05.990Z,22.93
2022-10-08T12:11:29.436Z,23.10
2022-10-08T12:12:49.869Z,23.18
2022-10-08T12:14:14.355Z,23.33
2022-10-08T12:15:24.837Z,23.49
2022-10-08T12:16:49.294Z,23.80
2022-10-08T12:18:25.821Z,23.75
2022-10-08T12:19:34.033Z,24.09
2022-10-08T12:20:38.032Z,23.95
2022-10-08T12:21:49.599Z,24.31
2022-10-08T12:23:20.439Z,24.38
2022-10-08T12:24:37.482Z,24.88
2022-10-08T12:25:48.932Z,24.83
2022-10-08T12:27:16.370Z,24.97
2022-10-08T12:28:21.212Z,25.34
2022-10-08T12:30:03.204Z,25.73
2022-10-08T12:31:30.865Z,25.90
2022-10-08T12:32:41.807Z,25.65
2022-10-08T12:33:43.839Z,25.79
2022-10-08T12:34:45.605Z,25.92
2022-10-08T12:36:19.175Z,25.85
2022-10-08T12:37:59.355Z,26.03
2022-10-08T12:39:38.027Z,25.64
2022-10-08T12:40:50.441Z,26.31
2022-10-08T12:42:14.573Z,25.89
2022-10-08T12:43:31.243Z,26.22
2022-10-08T12:44:58.107Z,26.74
2022-10-08T12:46:50.903Z,26.41
2022-10-08T12:48:03.621Z,26.60
2022-10-08T12:49:17.241Z,26.68
2022-10-08T12:50:35.904Z,26.41
2022-10-08T12:51:59.773Z,26.51
2022-10-08T12:53:07.037Z,26.47
2022-10-08T12:54:27.218Z,26.73
2022-10-08T12:55:37.899Z,26.34
2022-10-08T12:56:40.835Z,26.58
2022-10-08T12:57:43.877Z,25.82
2022-10-08T12:58:47.879Z,25.78
2022-10-08T12:59:50.614Z,26.17
2022-10-08T13:01:01.699Z,26.27
2022-10-08T13:02:03.555Z,25.98
2022-10-08T13:03:14.091Z,26.17
2022-10-08T13:04:23.964Z,26.10
2022-10-08T13:05:33.129Z,26.24
2022-10-08T13:06:35.142Z,26.35
2022-10-08T13:07:36.875Z,25.90
2022-10-08T13:08:40.336Z,26.06
2022-10-08T13:09:44.979Z,26.15
2022-10-08T13:10:46.735Z,26.45
2022-10-08T13:11:53.685Z,26.86
2022-10-08T13:13:06.636Z,26.72
2022-10-08T13:14:35.874Z,26.42
2022-10-08T13:15:37.590Z,26.40
2022-10-08T13:16:47.761Z,26.48
2022-10-08T13:17:50.146Z,26.80
2022-10-08T13:18:57.432Z,26.69
2022-10-08T13:20:11.569Z,26.69
2022-10-08T13:21:31.630Z,26.75
2022-10-08T13:22:33.415Z,26.41
2022-10-08T13:23:44.322Z,26.54
2022-10-08T13:24:46.654Z,26.34
2022-10-08T13:25:48.444Z,26.61
2022-10-08T13:26:53.921Z,26.76
2022-10-08T13:28:58.564Z,26.81
2022-10-08T13:29:50.171Z,26.44
2022-10-08T13:30:59.293Z,26.69
2022-10-08T13:32:12.650Z,26.37
2022-10-08T13:33:21.725Z,26.82
2022-10-08T13:34:31.302Z,26.78
2022-10-08T13:35:35.626Z,26.80
2022-10-08T13:36:38.144Z,26.61
2022-10-08T13:37:41.153Z,26.63
2022-10-08T13:38:42.916Z,26.47
2022-10-08T13:40:12.976Z,26.95
2022-10-08T13:41:23.697Z,26.90
2022-10-08T13:42:36.627Z,26.92
2022-10-08T13:43:39.315Z,26.62
2022-10-08T13:44:42.523Z,26.53
2022-10-08T13:45:44.300Z,27.27
2022-10-08T13:46:46.196Z,27.09
2022-10-08T13:47:48.866Z,27.21
2022-10-08T13:48:50.951Z,27.50
2022-10-08T13:49:55.513Z,27.34
2022-10-08T13:50:57.509Z,27.63
2022-10-08T13:52:00.948Z,27.50
2022-10-08T13:53:04.323Z,27.63
2022-10-08T13:54:06.065Z,27.69
2022-10-08T13:55:32.769Z,27.83
2022-10-08T13:56:34.560Z,28.06
2022-10-08T13:57:36.303Z,27.79
2022-10-08T13:58:38.039Z,28.12
2022-10-08T13:59:39.959Z,27.72
2022-10-08T14:00:43.990Z,27.79
2022-10-08T14:01:47.123Z,28.08
2022-10-08T14:02:51.582Z,28.15
2022-10-08T14:03:53.370Z,28.01
2022-10-08T14:04:55.106Z,28.00
2022-10-08T14:05:57.717Z,28.34
2022-10-08T14:07:02.210Z,28.39
2022-10-08T14:08:12.900Z,27.99
2022-10-08T14:09:26.793Z,28.56
2022-10-08T14:10:28.874Z,28.57
2022-10-08T14:11:31.292Z,28.40
2022-10-08T14:12:35.139Z,28.13
2022-10-08T14:13:36.861Z,28.45
2022-10-08T14:14:38.576Z,28.42
2022-10-08T14:15:41.131Z,28.50
2022-10-08T14:16:43.396Z,28.61
2022-10-08T14:17:45.394Z,28.52
2022-10-08T14:18:47.342Z,28.91
2022-10-08T14:19:49.802Z,28.97
2022-10-08T14:20:52.161Z,28.95
2022-10-08T14:21:56.992Z,29.48
2022-10-08T14:23:02.019Z,28.97
2022-10-08T14:24:03.911Z,28.95
2022-10-08T14:25:20.033Z,28.78
2022-10-08T14:26:21.748Z,28.88
2022-10-08T14:27:23.470Z,29.14
2022-10-08T14:28:25.377Z,29.14
2022-10-08T14:29:27.151Z,28.82
2022-10-08T14:30:29.018Z,29.34
2022-10-08T14:31:30.792Z,29.13
2022-10-08T14:32:32.582Z,29.13
2022-10-08T14:33:34.345Z,29.01
2022-10-08T14:34:36.469Z,29.34
2022-10-08T14:35:38.226Z,29.14
2022-10-08T14:36:42.052Z,28.83
2022-10-08T14:37:43.994Z,29.02
2022-10-08T14:38:45.876Z,29.22
2022-10-08T14:39:47.809Z,29.19
2022-10-08T14:40:49.502Z,29.38
2022-10-08T14:41:51.642Z,29.37
2022-10-08T14:42:53.379Z,29.14
2022-10-08T14:43:55.143Z,29.47
2022-10-08T14:44:56.959Z,29.54
2022-10-08T14:45:59.478Z,29.57
2022-10-08T14:47:01.274Z,29.56